sensor_id;sensor_type;location;lat;lon;timestamp;P1;durP1;ratioP1;P2;durP2;ratioP2
53751;SDS011;41095;53.090;6.692;2023-04-01T00:00:25;7.85;;;5.78;;
53751;SDS011;41095;53.090;6.692;2023-04-01T00:02:50;5.57;;;4.88;;
53751;SDS011;41095;53.090;6.692;2023-04-01T00:05:16;5.78;;;4.95;;
53751;SDS011;41095;53.090;6.692;2023-04-01T00:07:42;6.50;;;5.90;;
53751;SDS011;41095;53.090;6.692;2023-04-01T00:10:09;7.28;;;5.43;;
53751;SDS011;41095;53.090;6.692;2023-04-01T00:12:37;9.18;;;5.57;;
53751;SDS011;41095;53.090;6.692;2023-04-01T00:15:04;7.05;;;4.97;;
53751;SDS011;41095;53.090;6.692;2023-04-01T00:17:32;6.60;;;5.10;;
53751;SDS011;41095;53.090;6.692;2023-04-01T00:19:58;8.20;;;6.13;;
53751;SDS011;41095;53.090;6.692;2023-04-01T00:22:24;6.25;;;5.63;;
53751;SDS011;41095;53.090;6.692;2023-04-01T00:24:50;8.20;;;5.63;;
53751;SDS011;41095;53.090;6.692;2023-04-01T00:27:15;7.80;;;6.97;;
53751;SDS011;41095;53.090;6.692;2023-04-01T00:29:42;9.60;;;6.55;;
53751;SDS011;41095;53.090;6.692;2023-04-01T00:32:09;7.25;;;6.32;;
53751;SDS011;41095;53.090;6.692;2023-04-01T00:34:35;6.90;;;5.82;;
53751;SDS011;41095;53.090;6.692;2023-04-01T00:37:02;7.32;;;5.45;;
53751;SDS011;41095;53.090;6.692;2023-04-01T00:39:30;7.50;;;6.43;;
53751;SDS011;41095;53.090;6.692;2023-04-01T00:41:57;7.78;;;6.70;;
53751;SDS011;41095;53.090;6.692;2023-04-01T00:44:25;7.55;;;5.80;;
53751;SDS011;41095;53.090;6.692;2023-04-01T00:46:53;7.82;;;5.88;;
53751;SDS011;41095;53.090;6.692;2023-04-01T00:49:25;8.70;;;6.22;;
53751;SDS011;41095;53.090;6.692;2023-04-01T00:51:55;7.80;;;6.07;;
53751;SDS011;41095;53.090;6.692;2023-04-01T00:54:25;8.38;;;6.90;;
53751;SDS011;41095;53.090;6.692;2023-04-01T00:56:55;9.88;;;6.53;;
53751;SDS011;41095;53.090;6.692;2023-04-01T01:01:58;7.47;;;6.63;;
53751;SDS011;41095;53.090;6.692;2023-04-01T01:04:27;8.05;;;6.53;;
53751;SDS011;41095;53.090;6.692;2023-04-01T01:11:58;6.97;;;5.88;;
53751;SDS011;41095;53.090;6.692;2023-04-01T01:17:05;6.55;;;5.88;;
53751;SDS011;41095;53.090;6.692;2023-04-01T01:22:51;7.25;;;6.07;;
53751;SDS011;41095;53.090;6.692;2023-04-01T01:28:04;7.47;;;6.15;;
53751;SDS011;41095;53.090;6.692;2023-04-01T01:30:44;9.15;;;6.00;;
53751;SDS011;41095;53.090;6.692;2023-04-01T01:33:25;7.30;;;5.90;;
53751;SDS011;41095;53.090;6.692;2023-04-01T01:36:05;6.35;;;5.57;;
53751;SDS011;41095;53.090;6.692;2023-04-01T01:38:35;10.77;;;6.85;;
53751;SDS011;41095;53.090;6.692;2023-04-01T01:41:03;9.00;;;5.97;;
53751;SDS011;41095;53.090;6.692;2023-04-01T01:43:31;7.78;;;6.60;;
53751;SDS011;41095;53.090;6.692;2023-04-01T01:46:03;8.40;;;6.97;;
53751;SDS011;41095;53.090;6.692;2023-04-01T01:48:33;9.27;;;6.82;;
53751;SDS011;41095;53.090;6.692;2023-04-01T01:51:00;9.55;;;6.80;;
53751;SDS011;41095;53.090;6.692;2023-04-01T01:53:26;10.00;;;8.23;;
53751;SDS011;41095;53.090;6.692;2023-04-01T01:55:52;9.57;;;7.88;;
53751;SDS011;41095;53.090;6.692;2023-04-01T01:58:28;10.23;;;7.38;;
53751;SDS011;41095;53.090;6.692;2023-04-01T02:00:55;9.68;;;7.60;;
53751;SDS011;41095;53.090;6.692;2023-04-01T02:03:26;10.27;;;7.40;;
53751;SDS011;41095;53.090;6.692;2023-04-01T02:05:55;8.90;;;7.05;;
53751;SDS011;41095;53.090;6.692;2023-04-01T02:08:31;11.20;;;7.22;;
53751;SDS011;41095;53.090;6.692;2023-04-01T02:11:10;9.18;;;7.28;;
53751;SDS011;41095;53.090;6.692;2023-04-01T02:13:39;9.23;;;7.70;;
53751;SDS011;41095;53.090;6.692;2023-04-01T02:16:11;11.18;;;6.95;;
53751;SDS011;41095;53.090;6.692;2023-04-01T02:18:40;11.40;;;7.70;;
53751;SDS011;41095;53.090;6.692;2023-04-01T02:21:09;11.68;;;7.07;;
53751;SDS011;41095;53.090;6.692;2023-04-01T02:23:36;11.20;;;7.13;;
53751;SDS011;41095;53.090;6.692;2023-04-01T02:26:05;9.93;;;7.18;;
53751;SDS011;41095;53.090;6.692;2023-04-01T02:28:32;10.95;;;7.38;;
53751;SDS011;41095;53.090;6.692;2023-04-01T02:31:01;11.82;;;7.70;;
53751;SDS011;41095;53.090;6.692;2023-04-01T02:33:28;10.70;;;7.63;;
53751;SDS011;41095;53.090;6.692;2023-04-01T02:35:56;11.90;;;8.20;;
53751;SDS011;41095;53.090;6.692;2023-04-01T02:38:22;10.25;;;7.22;;
53751;SDS011;41095;53.090;6.692;2023-04-01T02:40:49;9.85;;;7.78;;
53751;SDS011;41095;53.090;6.692;2023-04-01T02:43:21;9.75;;;6.90;;
53751;SDS011;41095;53.090;6.692;2023-04-01T02:45:47;13.13;;;8.80;;
53751;SDS011;41095;53.090;6.692;2023-04-01T02:48:12;10.70;;;7.78;;
53751;SDS011;41095;53.090;6.692;2023-04-01T02:50:39;10.98;;;7.88;;
53751;SDS011;41095;53.090;6.692;2023-04-01T02:53:05;12.27;;;8.15;;
53751;SDS011;41095;53.090;6.692;2023-04-01T02:55:31;11.40;;;8.48;;
53751;SDS011;41095;53.090;6.692;2023-04-01T02:57:58;11.32;;;8.90;;
53751;SDS011;41095;53.090;6.692;2023-04-01T03:00:25;11.65;;;8.48;;
53751;SDS011;41095;53.090;6.692;2023-04-01T03:02:51;11.02;;;8.63;;
53751;SDS011;41095;53.090;6.692;2023-04-01T03:05:17;9.52;;;8.02;;
53751;SDS011;41095;53.090;6.692;2023-04-01T03:07:43;12.18;;;8.52;;
53751;SDS011;41095;53.090;6.692;2023-04-01T03:10:08;9.05;;;8.15;;
53751;SDS011;41095;53.090;6.692;2023-04-01T03:12:35;11.77;;;9.10;;
53751;SDS011;41095;53.090;6.692;2023-04-01T03:15:00;10.55;;;8.90;;
53751;SDS011;41095;53.090;6.692;2023-04-01T03:17:26;13.05;;;9.13;;
53751;SDS011;41095;53.090;6.692;2023-04-01T03:19:52;11.70;;;9.10;;
53751;SDS011;41095;53.090;6.692;2023-04-01T03:22:17;11.68;;;8.82;;
53751;SDS011;41095;53.090;6.692;2023-04-01T03:24:46;11.48;;;8.85;;
53751;SDS011;41095;53.090;6.692;2023-04-01T03:27:12;12.20;;;9.15;;
53751;SDS011;41095;53.090;6.692;2023-04-01T03:29:38;10.52;;;9.13;;
53751;SDS011;41095;53.090;6.692;2023-04-01T03:32:04;11.32;;;8.40;;
53751;SDS011;41095;53.090;6.692;2023-04-01T03:34:30;12.80;;;8.88;;
53751;SDS011;41095;53.090;6.692;2023-04-01T03:36:56;12.93;;;9.55;;
53751;SDS011;41095;53.090;6.692;2023-04-01T03:39:22;13.10;;;9.38;;
53751;SDS011;41095;53.090;6.692;2023-04-01T03:41:48;14.93;;;8.63;;
53751;SDS011;41095;53.090;6.692;2023-04-01T03:44:14;9.98;;;8.63;;
53751;SDS011;41095;53.090;6.692;2023-04-01T03:46:40;10.60;;;8.45;;
53751;SDS011;41095;53.090;6.692;2023-04-01T03:49:06;13.73;;;7.95;;
53751;SDS011;41095;53.090;6.692;2023-04-01T03:51:39;12.98;;;8.30;;
53751;SDS011;41095;53.090;6.692;2023-04-01T03:54:06;13.18;;;9.07;;
53751;SDS011;41095;53.090;6.692;2023-04-01T03:56:32;12.73;;;8.75;;
53751;SDS011;41095;53.090;6.692;2023-04-01T03:59:00;11.20;;;8.43;;
53751;SDS011;41095;53.090;6.692;2023-04-01T04:01:27;14.02;;;9.57;;
53751;SDS011;41095;53.090;6.692;2023-04-01T04:03:54;11.80;;;10.10;;
53751;SDS011;41095;53.090;6.692;2023-04-01T04:06:21;14.13;;;9.48;;
53751;SDS011;41095;53.090;6.692;2023-04-01T04:08:48;15.30;;;10.95;;
53751;SDS011;41095;53.090;6.692;2023-04-01T04:11:14;14.18;;;9.68;;
53751;SDS011;41095;53.090;6.692;2023-04-01T04:13:40;10.90;;;8.75;;
53751;SDS011;41095;53.090;6.692;2023-04-01T04:16:07;12.18;;;9.13;;
53751;SDS011;41095;53.090;6.692;2023-04-01T04:18:33;14.20;;;10.07;;
53751;SDS011;41095;53.090;6.692;2023-04-01T04:20:59;12.75;;;9.75;;
53751;SDS011;41095;53.090;6.692;2023-04-01T04:23:25;16.13;;;10.48;;
53751;SDS011;41095;53.090;6.692;2023-04-01T04:25:57;12.25;;;10.18;;
53751;SDS011;41095;53.090;6.692;2023-04-01T04:28:26;17.27;;;11.27;;
53751;SDS011;41095;53.090;6.692;2023-04-01T04:30:52;15.50;;;12.02;;
53751;SDS011;41095;53.090;6.692;2023-04-01T04:33:18;15.23;;;11.35;;
53751;SDS011;41095;53.090;6.692;2023-04-01T04:35:43;13.88;;;10.90;;
53751;SDS011;41095;53.090;6.692;2023-04-01T04:38:09;13.95;;;11.00;;
53751;SDS011;41095;53.090;6.692;2023-04-01T04:40:36;15.93;;;10.10;;
53751;SDS011;41095;53.090;6.692;2023-04-01T04:43:02;16.70;;;11.32;;
53751;SDS011;41095;53.090;6.692;2023-04-01T04:45:28;16.40;;;11.60;;
53751;SDS011;41095;53.090;6.692;2023-04-01T04:47:55;13.93;;;11.82;;
53751;SDS011;41095;53.090;6.692;2023-04-01T04:50:21;16.00;;;12.35;;
53751;SDS011;41095;53.090;6.692;2023-04-01T04:52:47;15.02;;;11.18;;
53751;SDS011;41095;53.090;6.692;2023-04-01T04:55:13;17.73;;;12.13;;
53751;SDS011;41095;53.090;6.692;2023-04-01T04:57:40;14.85;;;11.15;;
53751;SDS011;41095;53.090;6.692;2023-04-01T05:00:06;18.67;;;12.77;;
53751;SDS011;41095;53.090;6.692;2023-04-01T05:02:32;16.27;;;13.25;;
53751;SDS011;41095;53.090;6.692;2023-04-01T05:04:58;17.33;;;12.32;;
53751;SDS011;41095;53.090;6.692;2023-04-01T05:07:24;16.15;;;13.23;;
53751;SDS011;41095;53.090;6.692;2023-04-01T05:09:50;18.50;;;13.57;;
53751;SDS011;41095;53.090;6.692;2023-04-01T05:12:15;18.48;;;13.95;;
53751;SDS011;41095;53.090;6.692;2023-04-01T05:14:41;20.02;;;15.50;;
53751;SDS011;41095;53.090;6.692;2023-04-01T05:17:10;16.02;;;11.90;;
53751;SDS011;41095;53.090;6.692;2023-04-01T05:19:37;10.02;;;8.60;;
53751;SDS011;41095;53.090;6.692;2023-04-01T05:22:04;9.40;;;6.75;;
53751;SDS011;41095;53.090;6.692;2023-04-01T05:24:30;6.88;;;5.88;;
53751;SDS011;41095;53.090;6.692;2023-04-01T05:26:56;7.45;;;5.57;;
53751;SDS011;41095;53.090;6.692;2023-04-01T05:29:23;5.88;;;5.20;;
53751;SDS011;41095;53.090;6.692;2023-04-01T05:31:49;8.02;;;6.25;;
53751;SDS011;41095;53.090;6.692;2023-04-01T05:34:15;9.00;;;6.72;;
53751;SDS011;41095;53.090;6.692;2023-04-01T05:36:41;9.68;;;7.82;;
53751;SDS011;41095;53.090;6.692;2023-04-01T05:39:08;11.35;;;8.38;;
53751;SDS011;41095;53.090;6.692;2023-04-01T05:41:37;10.50;;;7.53;;
53751;SDS011;41095;53.090;6.692;2023-04-01T05:44:03;9.02;;;7.85;;
53751;SDS011;41095;53.090;6.692;2023-04-01T05:46:30;14.32;;;10.57;;
53751;SDS011;41095;53.090;6.692;2023-04-01T05:48:56;12.93;;;10.65;;
53751;SDS011;41095;53.090;6.692;2023-04-01T05:51:22;15.40;;;11.15;;
53751;SDS011;41095;53.090;6.692;2023-04-01T05:53:48;15.65;;;11.75;;
53751;SDS011;41095;53.090;6.692;2023-04-01T05:56:14;14.52;;;11.48;;
53751;SDS011;41095;53.090;6.692;2023-04-01T05:58:40;16.95;;;13.13;;
53751;SDS011;41095;53.090;6.692;2023-04-01T06:01:07;16.23;;;12.32;;
53751;SDS011;41095;53.090;6.692;2023-04-01T06:03:35;16.98;;;12.20;;
53751;SDS011;41095;53.090;6.692;2023-04-01T06:06:01;16.13;;;11.43;;
53751;SDS011;41095;53.090;6.692;2023-04-01T06:08:27;17.65;;;13.07;;
53751;SDS011;41095;53.090;6.692;2023-04-01T06:24:25;20.27;;;15.40;;
53751;SDS011;41095;53.090;6.692;2023-04-01T06:27:20;21.65;;;16.48;;
53751;SDS011;41095;53.090;6.692;2023-04-01T06:30:29;19.55;;;15.40;;
53751;SDS011;41095;53.090;6.692;2023-04-01T06:38:38;21.50;;;14.45;;
53751;SDS011;41095;53.090;6.692;2023-04-01T06:46:45;22.90;;;16.60;;
53751;SDS011;41095;53.090;6.692;2023-04-01T06:54:57;22.92;;;16.35;;
53751;SDS011;41095;53.090;6.692;2023-04-01T06:57:31;21.73;;;16.08;;
53751;SDS011;41095;53.090;6.692;2023-04-01T07:00:03;20.23;;;14.90;;
53751;SDS011;41095;53.090;6.692;2023-04-01T07:02:45;24.95;;;16.25;;
53751;SDS011;41095;53.090;6.692;2023-04-01T07:05:20;20.15;;;15.18;;
53751;SDS011;41095;53.090;6.692;2023-04-01T07:07:48;23.73;;;15.10;;
53751;SDS011;41095;53.090;6.692;2023-04-01T07:13:25;21.80;;;16.35;;
53751;SDS011;41095;53.090;6.692;2023-04-01T07:16:00;20.35;;;15.38;;
53751;SDS011;41095;53.090;6.692;2023-04-01T07:18:50;24.40;;;15.55;;
53751;SDS011;41095;53.090;6.692;2023-04-01T07:23:54;22.08;;;14.40;;
53751;SDS011;41095;53.090;6.692;2023-04-01T07:26:25;24.48;;;15.02;;
53751;SDS011;41095;53.090;6.692;2023-04-01T07:28:52;26.38;;;17.73;;
53751;SDS011;41095;53.090;6.692;2023-04-01T07:34:28;22.05;;;14.82;;
53751;SDS011;41095;53.090;6.692;2023-04-01T07:37:06;20.80;;;15.77;;
53751;SDS011;41095;53.090;6.692;2023-04-01T07:55:47;21.48;;;13.73;;
53751;SDS011;41095;53.090;6.692;2023-04-01T07:58:37;18.00;;;13.73;;
53751;SDS011;41095;53.090;6.692;2023-04-01T08:06:50;19.23;;;13.27;;
53751;SDS011;41095;53.090;6.692;2023-04-01T08:09:40;19.15;;;14.48;;
53751;SDS011;41095;53.090;6.692;2023-04-01T08:12:33;20.48;;;12.23;;
53751;SDS011;41095;53.090;6.692;2023-04-01T08:15:27;19.23;;;12.77;;
53751;SDS011;41095;53.090;6.692;2023-04-01T08:31:25;12.63;;;9.38;;
53751;SDS011;41095;53.090;6.692;2023-04-01T08:33:55;15.40;;;8.60;;
53751;SDS011;41095;53.090;6.692;2023-04-01T08:36:23;15.20;;;9.77;;
53751;SDS011;41095;53.090;6.692;2023-04-01T08:38:55;13.50;;;9.27;;
53751;SDS011;41095;53.090;6.692;2023-04-01T08:52:22;14.02;;;9.25;;
53751;SDS011;41095;53.090;6.692;2023-04-01T08:57:32;14.00;;;8.00;;
53751;SDS011;41095;53.090;6.692;2023-04-01T09:00:09;13.23;;;7.38;;
53751;SDS011;41095;53.090;6.692;2023-04-01T09:11:06;13.95;;;9.15;;
53751;SDS011;41095;53.090;6.692;2023-04-01T09:16:27;10.85;;;8.00;;
53751;SDS011;41095;53.090;6.692;2023-04-01T09:22:17;12.85;;;7.40;;
53751;SDS011;41095;53.090;6.692;2023-04-01T09:25:31;10.52;;;7.07;;
53751;SDS011;41095;53.090;6.692;2023-04-01T09:28:34;12.15;;;7.80;;
53751;SDS011;41095;53.090;6.692;2023-04-01T09:34:09;10.82;;;6.18;;
53751;SDS011;41095;53.090;6.692;2023-04-01T09:37:07;10.10;;;5.50;;
53751;SDS011;41095;53.090;6.692;2023-04-01T09:39:46;11.23;;;6.65;;
53751;SDS011;41095;53.090;6.692;2023-04-01T09:54:01;5.43;;;3.47;;
53751;SDS011;41095;53.090;6.692;2023-04-01T10:10:19;3.42;;;3.13;;
53751;SDS011;41095;53.090;6.692;2023-04-01T10:21:16;3.25;;;2.95;;
53751;SDS011;41095;53.090;6.692;2023-04-01T10:24:05;4.57;;;3.47;;
53751;SDS011;41095;53.090;6.692;2023-04-01T10:26:50;4.60;;;3.47;;
53751;SDS011;41095;53.090;6.692;2023-04-01T10:43:40;2.92;;;2.63;;
53751;SDS011;41095;53.090;6.692;2023-04-01T10:54:47;2.08;;;1.88;;
53751;SDS011;41095;53.090;6.692;2023-04-01T11:08:42;2.77;;;2.57;;
53751;SDS011;41095;53.090;6.692;2023-04-01T11:28:20;3.00;;;2.70;;
53751;SDS011;41095;53.090;6.692;2023-04-01T11:31:17;3.05;;;2.75;;
53751;SDS011;41095;53.090;6.692;2023-04-01T11:40:02;3.33;;;2.88;;
53751;SDS011;41095;53.090;6.692;2023-04-01T11:42:44;2.78;;;2.50;;
53751;SDS011;41095;53.090;6.692;2023-04-01T11:47:55;3.35;;;2.65;;
53751;SDS011;41095;53.090;6.692;2023-04-01T11:53:26;3.13;;;2.83;;
53751;SDS011;41095;53.090;6.692;2023-04-01T12:01:33;3.40;;;2.60;;
53751;SDS011;41095;53.090;6.692;2023-04-01T12:07:14;3.10;;;2.80;;
53751;SDS011;41095;53.090;6.692;2023-04-01T12:15:03;2.25;;;2.05;;
53751;SDS011;41095;53.090;6.692;2023-04-01T12:18:13;2.10;;;2.00;;
53751;SDS011;41095;53.090;6.692;2023-04-01T12:20:50;2.10;;;1.88;;
53751;SDS011;41095;53.090;6.692;2023-04-01T12:29:07;2.80;;;2.60;;
53751;SDS011;41095;53.090;6.692;2023-04-01T12:37:07;5.25;;;2.45;;
53751;SDS011;41095;53.090;6.692;2023-04-01T12:45:03;3.47;;;2.92;;
53751;SDS011;41095;53.090;6.692;2023-04-01T12:59:41;2.88;;;2.53;;
53751;SDS011;41095;53.090;6.692;2023-04-01T13:07:58;2.63;;;2.42;;
53751;SDS011;41095;53.090;6.692;2023-04-01T13:16:10;2.70;;;2.50;;
53751;SDS011;41095;53.090;6.692;2023-04-01T13:18:57;2.25;;;2.10;;
53751;SDS011;41095;53.090;6.692;2023-04-01T13:27:01;2.33;;;2.03;;
53751;SDS011;41095;53.090;6.692;2023-04-01T13:29:46;2.58;;;2.38;;
53751;SDS011;41095;53.090;6.692;2023-04-01T13:32:45;2.35;;;2.10;;
53751;SDS011;41095;53.090;6.692;2023-04-01T13:38:11;2.03;;;1.90;;
53751;SDS011;41095;53.090;6.692;2023-04-01T13:41:01;1.98;;;1.88;;
53751;SDS011;41095;53.090;6.692;2023-04-01T13:43:42;1.90;;;1.80;;
53751;SDS011;41095;53.090;6.692;2023-04-01T13:46:26;2.38;;;2.17;;
53751;SDS011;41095;53.090;6.692;2023-04-01T13:57:15;2.30;;;2.10;;
53751;SDS011;41095;53.090;6.692;2023-04-01T14:05:39;2.65;;;1.95;;
53751;SDS011;41095;53.090;6.692;2023-04-01T14:08:36;2.72;;;2.15;;
53751;SDS011;41095;53.090;6.692;2023-04-01T14:19:18;1.95;;;1.85;;
53751;SDS011;41095;53.090;6.692;2023-04-01T14:33:46;2.20;;;2.10;;
53751;SDS011;41095;53.090;6.692;2023-04-01T14:50:45;2.45;;;2.25;;
53751;SDS011;41095;53.090;6.692;2023-04-01T14:53:34;2.85;;;2.30;;
53751;SDS011;41095;53.090;6.692;2023-04-01T14:56:04;3.13;;;2.85;;
53751;SDS011;41095;53.090;6.692;2023-04-01T14:58:44;2.40;;;2.20;;
53751;SDS011;41095;53.090;6.692;2023-04-01T15:23:17;2.70;;;2.50;;
53751;SDS011;41095;53.090;6.692;2023-04-01T15:25:50;2.90;;;2.70;;
53751;SDS011;41095;53.090;6.692;2023-04-01T15:31:15;4.55;;;3.50;;
53751;SDS011;41095;53.090;6.692;2023-04-01T15:44:57;3.20;;;2.90;;
53751;SDS011;41095;53.090;6.692;2023-04-01T15:52:50;4.63;;;3.47;;
53751;SDS011;41095;53.090;6.692;2023-04-01T15:55:30;4.53;;;3.30;;
53751;SDS011;41095;53.090;6.692;2023-04-01T16:00:34;3.60;;;3.20;;
53751;SDS011;41095;53.090;6.692;2023-04-01T16:03:15;4.00;;;3.30;;
53751;SDS011;41095;53.090;6.692;2023-04-01T16:23:47;8.48;;;4.72;;
53751;SDS011;41095;53.090;6.692;2023-04-01T16:26:22;5.03;;;4.38;;
53751;SDS011;41095;53.090;6.692;2023-04-01T16:37:49;6.63;;;5.45;;
53751;SDS011;41095;53.090;6.692;2023-04-01T16:50:59;7.18;;;5.45;;
53751;SDS011;41095;53.090;6.692;2023-04-01T16:53:48;5.97;;;5.00;;
53751;SDS011;41095;53.090;6.692;2023-04-01T16:56:24;5.68;;;5.10;;
53751;SDS011;41095;53.090;6.692;2023-04-01T17:04:24;7.65;;;4.78;;
53751;SDS011;41095;53.090;6.692;2023-04-01T17:07:05;6.55;;;5.15;;
53751;SDS011;41095;53.090;6.692;2023-04-01T17:09:58;7.05;;;4.68;;
53751;SDS011;41095;53.090;6.692;2023-04-01T17:34:54;6.28;;;4.75;;
53751;SDS011;41095;53.090;6.692;2023-04-01T17:45:54;7.47;;;5.55;;
53751;SDS011;41095;53.090;6.692;2023-04-01T17:57:08;7.28;;;6.55;;
53751;SDS011;41095;53.090;6.692;2023-04-01T18:00:01;8.15;;;5.93;;
53751;SDS011;41095;53.090;6.692;2023-04-01T18:15:46;6.30;;;5.28;;
53751;SDS011;41095;53.090;6.692;2023-04-01T18:21:14;9.43;;;5.32;;
53751;SDS011;41095;53.090;6.692;2023-04-01T18:23:53;6.43;;;5.43;;
53751;SDS011;41095;53.090;6.692;2023-04-01T18:26:26;7.63;;;5.40;;
53751;SDS011;41095;53.090;6.692;2023-04-01T18:28:58;8.02;;;6.25;;
53751;SDS011;41095;53.090;6.692;2023-04-01T18:31:45;6.47;;;5.10;;
53751;SDS011;41095;53.090;6.692;2023-04-01T18:34:18;7.97;;;6.03;;
53751;SDS011;41095;53.090;6.692;2023-04-01T18:37:18;9.43;;;5.30;;
53751;SDS011;41095;53.090;6.692;2023-04-01T18:39:59;7.45;;;5.90;;
53751;SDS011;41095;53.090;6.692;2023-04-01T18:45:22;6.60;;;5.13;;
53751;SDS011;41095;53.090;6.692;2023-04-01T18:48:06;8.32;;;5.95;;
53751;SDS011;41095;53.090;6.692;2023-04-01T18:50:58;9.32;;;5.80;;
53751;SDS011;41095;53.090;6.692;2023-04-01T18:53:48;10.20;;;6.65;;
53751;SDS011;41095;53.090;6.692;2023-04-01T18:56:28;11.10;;;5.55;;
53751;SDS011;41095;53.090;6.692;2023-04-01T19:01:39;7.28;;;5.65;;
53751;SDS011;41095;53.090;6.692;2023-04-01T19:07:19;8.50;;;6.20;;
53751;SDS011;41095;53.090;6.692;2023-04-01T19:09:51;8.23;;;6.55;;
53751;SDS011;41095;53.090;6.692;2023-04-01T19:17:45;9.35;;;5.88;;
53751;SDS011;41095;53.090;6.692;2023-04-01T19:20:27;8.50;;;6.38;;
53751;SDS011;41095;53.090;6.692;2023-04-01T19:25:54;10.40;;;6.78;;
53751;SDS011;41095;53.090;6.692;2023-04-01T19:31:31;10.70;;;6.70;;
53751;SDS011;41095;53.090;6.692;2023-04-01T19:34:07;13.68;;;8.73;;
53751;SDS011;41095;53.090;6.692;2023-04-01T19:42:05;13.38;;;7.82;;
53751;SDS011;41095;53.090;6.692;2023-04-01T19:49:56;11.30;;;7.70;;
53751;SDS011;41095;53.090;6.692;2023-04-01T19:52:36;10.27;;;7.78;;
53751;SDS011;41095;53.090;6.692;2023-04-01T19:58:15;11.57;;;7.47;;
53751;SDS011;41095;53.090;6.692;2023-04-01T20:00:51;9.38;;;7.72;;
53751;SDS011;41095;53.090;6.692;2023-04-01T20:03:39;11.13;;;7.75;;
53751;SDS011;41095;53.090;6.692;2023-04-01T20:11:14;10.77;;;6.90;;
53751;SDS011;41095;53.090;6.692;2023-04-01T20:14:03;9.32;;;6.93;;
53751;SDS011;41095;53.090;6.692;2023-04-01T20:19:43;11.35;;;7.75;;
53751;SDS011;41095;53.090;6.692;2023-04-01T20:25:13;9.52;;;6.47;;
53751;SDS011;41095;53.090;6.692;2023-04-01T20:30:27;11.18;;;6.55;;
53751;SDS011;41095;53.090;6.692;2023-04-01T20:33:15;12.20;;;6.70;;
53751;SDS011;41095;53.090;6.692;2023-04-01T20:38:41;12.65;;;6.75;;
53751;SDS011;41095;53.090;6.692;2023-04-01T20:44:07;7.07;;;6.13;;
53751;SDS011;41095;53.090;6.692;2023-04-01T20:46:48;10.15;;;6.20;;
53751;SDS011;41095;53.090;6.692;2023-04-01T20:52:24;12.23;;;6.35;;
53751;SDS011;41095;53.090;6.692;2023-04-01T20:55:19;10.30;;;6.45;;
53751;SDS011;41095;53.090;6.692;2023-04-01T21:06:18;10.90;;;6.35;;
53751;SDS011;41095;53.090;6.692;2023-04-01T21:17:27;6.97;;;5.32;;
53751;SDS011;41095;53.090;6.692;2023-04-01T21:23:02;9.15;;;5.50;;
53751;SDS011;41095;53.090;6.692;2023-04-01T21:25:27;6.20;;;5.03;;
53751;SDS011;41095;53.090;6.692;2023-04-01T21:33:42;7.47;;;5.03;;
53751;SDS011;41095;53.090;6.692;2023-04-01T21:44:41;8.90;;;5.43;;
53751;SDS011;41095;53.090;6.692;2023-04-01T22:04:44;11.35;;;5.75;;
53751;SDS011;41095;53.090;6.692;2023-04-01T22:07:25;6.90;;;5.55;;
53751;SDS011;41095;53.090;6.692;2023-04-01T22:10:04;12.90;;;5.65;;
53751;SDS011;41095;53.090;6.692;2023-04-01T22:16:08;6.03;;;5.20;;
53751;SDS011;41095;53.090;6.692;2023-04-01T22:19:36;9.10;;;5.95;;
53751;SDS011;41095;53.090;6.692;2023-04-01T22:27:35;10.25;;;6.28;;
53751;SDS011;41095;53.090;6.692;2023-04-01T22:33:02;9.23;;;5.50;;
53751;SDS011;41095;53.090;6.692;2023-04-01T22:35:49;7.93;;;5.57;;
53751;SDS011;41095;53.090;6.692;2023-04-01T22:50:22;8.90;;;4.70;;
53751;SDS011;41095;53.090;6.692;2023-04-01T22:53:43;8.65;;;4.50;;
53751;SDS011;41095;53.090;6.692;2023-04-01T22:55:50;7.53;;;4.43;;
53751;SDS011;41095;53.090;6.692;2023-04-01T22:58:21;7.35;;;4.50;;
53751;SDS011;41095;53.090;6.692;2023-04-01T23:01:03;7.03;;;5.00;;
53751;SDS011;41095;53.090;6.692;2023-04-01T23:03:33;5.07;;;4.57;;
53751;SDS011;41095;53.090;6.692;2023-04-01T23:06:04;8.18;;;5.10;;
53751;SDS011;41095;53.090;6.692;2023-04-01T23:11:32;7.97;;;4.95;;
53751;SDS011;41095;53.090;6.692;2023-04-01T23:16:43;6.25;;;5.07;;
53751;SDS011;41095;53.090;6.692;2023-04-01T23:19:23;7.22;;;4.90;;
53751;SDS011;41095;53.090;6.692;2023-04-01T23:24:42;6.43;;;4.75;;
53751;SDS011;41095;53.090;6.692;2023-04-01T23:27:29;7.68;;;5.45;;
53751;SDS011;41095;53.090;6.692;2023-04-01T23:30:02;8.65;;;5.10;;
53751;SDS011;41095;53.090;6.692;2023-04-01T23:32:28;6.45;;;5.10;;
53751;SDS011;41095;53.090;6.692;2023-04-01T23:34:58;4.80;;;4.30;;
53751;SDS011;41095;53.090;6.692;2023-04-01T23:37:25;5.03;;;4.28;;
53751;SDS011;41095;53.090;6.692;2023-04-01T23:39:53;6.28;;;4.63;;
53751;SDS011;41095;53.090;6.692;2023-04-01T23:42:22;5.50;;;4.45;;
53751;SDS011;41095;53.090;6.692;2023-04-01T23:45:13;8.02;;;5.20;;
53751;SDS011;41095;53.090;6.692;2023-04-01T23:47:38;5.00;;;4.13;;
53751;SDS011;41095;53.090;6.692;2023-04-01T23:52:43;5.72;;;4.80;;
53751;SDS011;41095;53.090;6.692;2023-04-01T23:55:25;5.20;;;4.63;;
